createdAt,value
2018-12-26T00:03:26.654Z,5.59
2018-12-26T00:09:21.659Z,5.25
2018-12-26T00:15:16.679Z,5.41
2018-12-26T00:21:11.664Z,5.07
2018-12-26T00:27:06.653Z,5.6
2018-12-26T00:33:01.714Z,6.8
2018-12-26T00:38:56.696Z,4.12
2018-12-26T00:44:51.698Z,6.18
2018-12-26T00:50:46.692Z,5.8
2018-12-26T00:56:41.679Z,5.37
2018-12-26T01:02:36.697Z,3.59
2018-12-26T01:08:31.724Z,5.34
2018-12-26T01:14:26.697Z,5.51
2018-12-26T01:20:21.701Z,4.87
2018-12-26T01:26:19.162Z,5.89
2018-12-26T01:32:11.717Z,5.33
2018-12-26T01:38:06.690Z,6.9
2018-12-26T01:44:01.710Z,5.12
2018-12-26T01:49:56.719Z,4.66
2018-12-26T01:55:51.722Z,7.17
2018-12-26T02:01:46.718Z,5.89
2018-12-26T02:07:41.725Z,5.49
2018-12-26T02:13:36.740Z,6.2
2018-12-26T02:19:31.749Z,10.9
2018-12-26T02:25:26.762Z,9.32
2018-12-26T02:31:21.739Z,8.19
2018-12-26T02:37:16.748Z,6.67
2018-12-26T02:43:11.756Z,5.85
2018-12-26T02:49:06.808Z,6.39
2018-12-26T02:55:01.754Z,7.27
2018-12-26T03:00:56.750Z,8.86
2018-12-26T03:06:51.750Z,9.03
2018-12-26T03:12:46.773Z,10.13
2018-12-26T03:18:41.756Z,11.24
2018-12-26T03:24:36.796Z,7.63
2018-12-26T03:30:31.756Z,6
2018-12-26T03:36:26.760Z,5.47
2018-12-26T03:42:21.772Z,6.96
2018-12-26T03:48:16.794Z,7.75
2018-12-26T03:54:11.799Z,7.62
2018-12-26T04:00:06.778Z,6.4
2018-12-26T04:06:01.785Z,7.58
2018-12-26T04:11:56.773Z,8.12
2018-12-26T04:17:51.790Z,9.49
2018-12-26T04:23:46.780Z,10.4
2018-12-26T04:29:41.806Z,9.11
2018-12-26T04:35:36.790Z,8.15
2018-12-26T04:41:31.786Z,6.72
2018-12-26T04:47:26.820Z,7.13
2018-12-26T04:53:21.844Z,7.27
2018-12-26T04:59:16.808Z,7.96
2018-12-26T05:05:11.812Z,6.64
2018-12-26T05:11:06.809Z,6.16
2018-12-26T05:17:01.811Z,5.33
2018-12-26T05:22:56.834Z,5.72
2018-12-26T05:28:51.830Z,7.67
2018-12-26T05:34:46.814Z,7.55
2018-12-26T05:40:41.833Z,7.35
2018-12-26T05:46:36.881Z,7.97
2018-12-26T05:52:31.883Z,6.15
2018-12-26T05:58:26.865Z,5.3
2018-12-26T06:04:21.829Z,5.7
2018-12-26T06:10:16.862Z,5.47
2018-12-26T06:16:11.872Z,5.69
2018-12-26T06:22:06.857Z,9
2018-12-26T06:28:01.839Z,8.94
2018-12-26T06:33:56.863Z,7.87
2018-12-26T06:39:51.870Z,7.49
2018-12-26T06:45:46.849Z,6.79
2018-12-26T06:51:41.869Z,6.33
2018-12-26T06:57:36.880Z,7.39
2018-12-26T07:03:31.869Z,6.26
2018-12-26T07:09:26.916Z,5.07
2018-12-26T07:15:21.856Z,4.53
2018-12-26T07:21:16.889Z,5.11
2018-12-26T07:27:11.878Z,5.11
2018-12-26T07:33:06.878Z,5.23
2018-12-26T07:39:01.937Z,5.64
2018-12-26T07:44:56.945Z,6.84
2018-12-26T07:50:51.944Z,7.25
2018-12-26T07:56:46.893Z,7.8
2018-12-26T08:02:41.898Z,9.86
2018-12-26T08:08:36.912Z,13.63
2018-12-26T08:14:31.917Z,12.72
2018-12-26T08:20:27.009Z,12.69
2018-12-26T08:26:21.901Z,14.43
2018-12-26T08:32:16.902Z,14.36
2018-12-26T08:38:11.918Z,14.4
2018-12-26T08:44:06.966Z,13.96
2018-12-26T08:50:01.955Z,13.58
2018-12-26T08:55:56.921Z,16
2018-12-26T09:01:51.947Z,13.75
2018-12-26T09:07:46.935Z,14.58
2018-12-26T09:13:41.934Z,15.02
2018-12-26T09:19:36.936Z,14.59
2018-12-26T09:25:31.942Z,17.16
2018-12-26T09:31:26.935Z,18.29
2018-12-26T09:37:21.946Z,22.61
2018-12-26T09:43:17.000Z,22.8
2018-12-26T09:49:11.979Z,23.18
2018-12-26T09:55:06.989Z,22.8
2018-12-26T10:01:01.984Z,23.74
2018-12-26T10:06:56.967Z,23.43
2018-12-26T10:12:51.965Z,24.87
2018-12-26T10:18:46.979Z,33.89
2018-12-26T10:24:41.974Z,32.96
2018-12-26T10:30:37.051Z,36.22
2018-12-26T10:36:31.990Z,31.38
2018-12-26T10:42:27.006Z,25.18
2018-12-26T10:48:22.009Z,24.47
2018-12-26T10:54:16.998Z,23.72
2018-12-26T11:00:11.983Z,22.83
2018-12-26T11:06:07.007Z,19.72
2018-12-26T11:12:02.000Z,19.4
2018-12-26T11:17:57.016Z,20.82
2018-12-26T11:23:52.093Z,20.82
2018-12-26T11:29:47.021Z,22.79
2018-12-26T11:35:42.033Z,18.45
2018-12-26T11:41:37.033Z,18.64
2018-12-26T11:47:32.004Z,18.2
2018-12-26T11:53:27.019Z,16.85
2018-12-26T11:59:27.094Z,15.31
2018-12-26T12:05:17.036Z,16.55
2018-12-26T12:11:12.010Z,20.88
2018-12-26T12:17:07.085Z,19.25
2018-12-26T12:23:02.082Z,15.01
2018-12-26T12:28:57.097Z,14.79
2018-12-26T12:34:52.037Z,14.27
2018-12-26T12:40:47.056Z,13.41
2018-12-26T12:46:42.046Z,11.92
2018-12-26T12:52:37.064Z,11.07
2018-12-26T12:58:32.061Z,10
2018-12-26T13:04:27.051Z,10.24
2018-12-26T13:10:22.056Z,21.33
2018-12-26T13:16:17.056Z,28.43
2018-12-26T13:22:12.063Z,20.86
2018-12-26T13:28:07.104Z,11.33
2018-12-26T13:34:02.104Z,10.33
2018-12-26T13:39:57.079Z,10.19
2018-12-26T13:45:52.072Z,10.32
2018-12-26T13:51:47.084Z,11.32
2018-12-26T13:57:42.112Z,11.42
2018-12-26T14:03:37.092Z,10.26
2018-12-26T14:09:32.094Z,10.91
2018-12-26T14:15:27.075Z,10.68
2018-12-26T14:21:22.094Z,8.97
2018-12-26T14:27:17.113Z,10.49
2018-12-26T14:33:12.117Z,8.99
2018-12-26T14:39:07.128Z,9.25
2018-12-26T14:45:02.112Z,8.41
2018-12-26T14:50:57.107Z,10.15
2018-12-26T14:56:52.119Z,14.59
2018-12-26T15:02:47.112Z,13.44
2018-12-26T15:08:42.125Z,9.96
2018-12-26T15:14:37.130Z,9.19
2018-12-26T15:20:32.133Z,8.65
2018-12-26T15:26:27.147Z,9.48
2018-12-26T15:32:22.144Z,9.36
2018-12-26T15:38:17.158Z,9.48
2018-12-26T15:44:12.149Z,9.09
2018-12-26T15:50:07.165Z,9.11
2018-12-26T15:56:02.152Z,8.03
2018-12-26T16:01:57.148Z,7.47
2018-12-26T16:07:52.179Z,6.22
2018-12-26T16:13:47.189Z,5.37
2018-12-26T16:19:42.164Z,3.61
2018-12-26T16:25:37.153Z,3.54
2018-12-26T16:31:32.202Z,3.34
2018-12-26T16:37:27.167Z,3.31
2018-12-26T16:43:22.177Z,3.24
2018-12-26T16:49:17.227Z,3.54
2018-12-26T16:55:12.186Z,4.21
2018-12-26T17:01:07.206Z,4.24
2018-12-26T17:07:02.177Z,4.4
2018-12-26T17:12:57.212Z,5.32
2018-12-26T17:18:52.228Z,6.08
2018-12-26T17:24:47.213Z,5.69
2018-12-26T17:30:42.201Z,5.01
2018-12-26T17:36:37.220Z,4.28
2018-12-26T17:42:32.221Z,3.88
2018-12-26T17:48:27.264Z,4.32
2018-12-26T17:54:22.257Z,4.22
2018-12-26T18:00:17.266Z,5.28
2018-12-26T18:06:12.255Z,5.17
2018-12-26T18:12:11.663Z,5
2018-12-26T18:18:02.224Z,5.62
2018-12-26T18:23:57.242Z,5.88
2018-12-26T18:29:52.225Z,7.41
2018-12-26T18:35:47.274Z,6
2018-12-26T18:41:42.243Z,5
2018-12-26T18:47:37.241Z,4.79
2018-12-26T18:53:32.287Z,4.25
2018-12-26T18:59:27.247Z,5.15
2018-12-26T19:05:22.257Z,6.98
2018-12-26T19:11:17.318Z,10.77
2018-12-26T19:17:12.317Z,11.5
2018-12-26T19:23:07.259Z,14.25
2018-12-26T19:29:02.304Z,13.02
2018-12-26T19:34:57.315Z,12.46
2018-12-26T19:40:52.263Z,10.41
2018-12-26T19:46:47.286Z,12.4
2018-12-26T19:52:42.313Z,12.31
2018-12-26T19:58:37.268Z,10.02
2018-12-26T20:04:32.307Z,10.25
2018-12-26T20:10:27.286Z,9.9
2018-12-26T20:16:22.283Z,15.1
2018-12-26T20:22:17.312Z,12.46
2018-12-26T20:28:12.285Z,10.19
2018-12-26T20:34:07.299Z,10.26
2018-12-26T20:40:02.344Z,11.67
2018-12-26T20:45:57.283Z,13.41
2018-12-26T20:51:52.301Z,12.39
2018-12-26T20:57:47.339Z,11.94
2018-12-26T21:03:42.304Z,13.62
2018-12-26T21:09:37.323Z,15.92
2018-12-26T21:15:32.327Z,17.08
2018-12-26T21:21:27.324Z,14.72
2018-12-26T21:27:22.313Z,13.3
2018-12-26T21:33:17.335Z,12.67
2018-12-26T21:39:12.326Z,13.48
2018-12-26T21:45:07.332Z,14
2018-12-26T21:51:02.380Z,12.76
2018-12-26T21:56:57.385Z,15.56
2018-12-26T22:02:52.346Z,16.12
2018-12-26T22:08:47.366Z,15.62
2018-12-26T22:14:42.363Z,11.23
2018-12-26T22:20:37.339Z,12.51
2018-12-26T22:26:32.356Z,13.98
2018-12-26T22:32:30.676Z,13.62
2018-12-26T22:38:22.350Z,13.01
2018-12-26T22:44:17.360Z,12.58
2018-12-26T22:50:12.373Z,14.76
2018-12-26T22:56:07.366Z,13.78
2018-12-26T23:02:02.363Z,11.1
2018-12-26T23:07:57.383Z,10.23
2018-12-26T23:13:52.419Z,15.6
2018-12-26T23:19:47.384Z,21.21
2018-12-26T23:25:42.392Z,25.78
2018-12-26T23:31:37.385Z,20.93
2018-12-26T23:37:32.403Z,17.18
2018-12-26T23:43:27.408Z,13.76
2018-12-26T23:49:22.389Z,16.84
2018-12-26T23:55:17.390Z,18.9
